Time;durP1;ratioP1;P1;durP2;ratioP2;P2;SDS_P1;SDS_P2;PMS_P1;PMS_P2;Temp;Humidity;BMP_temperature;BMP_pressure;BME280_temperature;BME280_humidity;BME280_pressure;Samples;Min_cycle;Max_cycle;Signal;HPM_P1;HPM_P2
2023/10/05 00:02:05;;;;;;;;;;;;;;;;;;7370396;19;1761;-57
2023/10/05 00:04:40;;;;;;;;;;;;;;;;;;7367289;19;1850;-55
2023/10/05 00:07:10;;;;;;;;;;;;;;;;;;7368949;19;1817;-58
2023/10/05 00:09:40;;;;;;;;;;;;;;;;;;7370861;19;1441;-54
2023/10/05 00:12:09;;;;;;;;;;;;;;;;;;7366081;19;1357;-57
2023/10/05 00:14:40;;;;;;;;;;;;;;;;;;7366638;19;717;-57
2023/10/05 00:17:08;;;;;;;;;;;;;;;;;;7367232;19;1637;-57
2023/10/05 00:19:38;;;;;;;;;;;;;;;;;;7370628;19;1320;-57
2023/10/05 00:22:07;;;;;;;;;;;;;;;;;;7365618;19;1315;-55
2023/10/05 00:24:37;;;;;;;;;;;;;;;;;;7368951;19;1843;-57
2023/10/05 00:27:08;;;;;;;;;;;;;;;;;;7371834;19;1803;-59
2023/10/05 00:29:43;;;;;;;;;;;;;;;;;;7367239;19;710;-56
2023/10/05 00:32:15;;;;;;;;;;;;;;;;;;7365908;19;1373;-57
2023/10/05 00:34:44;;;;;;;;;;;;;;;;;;7366396;19;869;-57
2023/10/05 00:37:13;;;;;;;;;;;;;;;;;;7368613;19;1699;-56
2023/10/05 00:39:46;;;;;;;;;;;;;;;;;;7370801;19;1656;-55
2023/10/05 00:42:15;;;;;;;;;;;;;;;;;;7365365;19;1334;-58
2023/10/05 00:44:44;;;;;;;;;;;;;;;;;;7366152;19;1830;-58
2023/10/05 00:47:13;;;;;;;;;;;;;;;;;;7366437;19;856;-55
2023/10/05 00:49:59;;;;;;;;;;;;;;;;;;7366901;19;847;-56
2023/10/05 00:52:29;;;;;;;;;;;;;;;;;;7365258;19;1258;-58
2023/10/05 00:54:59;;;;;;;;;;;;;;;;;;7364742;19;1630;-58
2023/10/05 00:57:28;;;;;;;;;;;;;;;;;;7371605;19;1374;-54
2023/10/05 01:00:26;;;;;;;;;;;;;;;;;;7369384;19;1296;-56
2023/10/05 01:03:17;;;;;;;;;;;;;;;;;;7363915;19;2000;-57
2023/10/05 01:05:49;;;;;;;;;;;;;;;;;;7364491;19;2089;-56
2023/10/05 01:08:23;;;;;;;;;;;;;;;;;;7365097;19;1829;-56
2023/10/05 01:10:54;;;;;;;;;;;;;;;;;;7369001;19;1786;-54
2023/10/05 01:13:22;;;;;;;;;;;;;;;;;;7368152;19;1967;-52
2023/10/05 01:15:52;;;;;;;;;;;;;;;;;;7367986;19;2017;-57
2023/10/05 01:18:23;;;;;;;;;;;;;;;;;;7369371;19;1495;-55
2023/10/05 01:20:51;;;;;;;;;;;;;;;;;;7366169;19;1329;-54
2023/10/05 01:23:21;;;;;;;;;;;;;;;;;;7368707;19;1090;-52
2023/10/05 01:25:50;;;;;;;;;;;;;;;;;;7364126;19;1853;-54
2023/10/05 01:28:19;;;;;;;;;;;;;;;;;;7364233;19;2096;-57
2023/10/05 01:30:47;;;;;;;;;;;;;;;;;;7367468;19;1484;-57
2023/10/05 01:33:17;;;;;;;;;;;;;;;;;;7363484;19;1599;-53
2023/10/05 01:35:46;;;;;;;;;;;;;;;;;;7369354;19;1441;-54
2023/10/05 01:38:16;;;;;;;;;;;;;;;;;;7364593;19;2246;-54
2023/10/05 01:40:48;;;;;;;;;;;;;;;;;;7369155;19;1472;-54
2023/10/05 01:43:17;;;;;;;;;;;;;;;;;;7364399;19;1508;-55
2023/10/05 01:45:45;;;;;;;;;;;;;;;;;;7364434;19;1964;-55
2023/10/05 01:48:18;;;;;;;;;;;;;;;;;;7366866;19;1573;-54
2023/10/05 01:50:49;;;;;;;;;;;;;;;;;;7364944;19;1916;-54
2023/10/05 01:53:18;;;;;;;;;;;;;;;;;;7367892;19;1678;-55
2023/10/05 01:55:47;;;;;;;;;;;;;;;;;;7364299;19;1509;-57
2023/10/05 01:58:22;;;;;;;;;;;;;;;;;;7367913;19;1931;-55
2023/10/05 02:00:50;;;;;;;;;;;;;;;;;;7365616;19;1960;-55
2023/10/05 02:03:19;;;;;;;;;;;;;;;;;;7366584;19;1203;-54
2023/10/05 02:05:47;;;;;;;;;;;;;;;;;;7360960;19;1865;-56
2023/10/05 02:08:20;;;;;;;;;;;;;;;;;;7367781;19;1389;-52
2023/10/05 02:10:50;;;;;;;;;;;;;;;;;;7364781;19;1344;-52
2023/10/05 02:13:19;;;;;;;;;;;;;;;;;;7364765;19;822;-56
2023/10/05 02:15:53;;;;;;;;;;;;;;;;;;7362071;19;2101;-55
2023/10/05 02:18:24;;;;;;;;;;;;;;;;;;7366256;19;1386;-56
2023/10/05 02:20:56;;;;;;;;;;;;;;;;;;7364387;19;1383;-55
2023/10/05 02:23:28;;;;;;;;;;;;;;;;;;7379102;19;724;-53
2023/10/05 02:25:57;;;;;;;;;;;;;;;;;;7377182;19;1902;-53
2023/10/05 02:28:26;;;;;;;;;;;;;;;;;;7380386;19;1581;-52
2023/10/05 02:30:54;;;;;;;;;;;;;;;;;;7381935;19;1805;-58
2023/10/05 02:33:24;;;;;;;;;;;;;;;;;;7376658;19;1230;-58
2023/10/05 02:35:56;;;;;;;;;;;;;;;;;;7377738;19;1886;-58
2023/10/05 02:38:25;;;;;;;;;;;;;;;;;;7377032;19;649;-56
2023/10/05 02:41:02;;;;;;;;;;;;;;;;;;7377592;19;1348;-58
2023/10/05 02:43:38;;;;;;;;;;;;;;;;;;7377670;19;731;-55
2023/10/05 02:46:09;;;;;;;;;;;;;;;;;;7376763;19;1845;-57
2023/10/05 02:48:39;;;;;;;;;;;;;;;;;;7380895;19;1348;-55
2023/10/05 02:51:10;;;;;;;;;;;;;;;;;;7377134;19;1360;-57
2023/10/05 02:53:41;;;;;;;;;;;;;;;;;;7378296;19;823;-54
2023/10/05 02:56:10;;;;;;;;;;;;;;;;;;7376687;19;1544;-52
2023/10/05 02:58:39;;;;;;;;;;;;;;;;;;7381751;19;1426;-56
2023/10/05 03:01:07;;;;;;;;;;;;;;;;;;7377885;19;1290;-54
2023/10/05 03:03:37;;;;;;;;;;;;;;;;;;7376224;19;687;-51
2023/10/05 03:06:06;;;;;;;;;;;;;;;;;;7375851;19;1863;-50
2023/10/05 03:08:36;;;;;;;;;;;;;;;;;;7379438;19;1615;-53
2023/10/05 03:11:08;;;;;;;;;;;;;;;;;;7378108;19;2052;-58
2023/10/05 03:13:36;;;;;;;;;;;;;;;;;;7379543;19;1677;-51
2023/10/05 03:16:06;;;;;;;;;;;;;;;;;;7375074;19;843;-54
2023/10/05 03:18:37;;;;;;;;;;;;;;;;;;7376714;19;1893;-51
2023/10/05 03:21:05;;;;;;;;;;;;;;;;;;7382176;19;1674;-51
2023/10/05 03:23:35;;;;;;;;;;;;;;;;;;7375043;19;822;-58
2023/10/05 03:26:03;;;;;;;;;;;;;;;;;;7372359;19;2017;-55
2023/10/05 03:28:35;;;;;;;;;;;;;;;;;;7377602;19;1535;-56
2023/10/05 03:31:07;;;;;;;;;;;;;;;;;;7380177;19;1429;-56
2023/10/05 03:33:35;;;;;;;;;;;;;;;;;;7370344;19;746;-57
2023/10/05 03:36:06;;;;;;;;;;;;;;;;;;7367497;19;1545;-56
2023/10/05 03:38:35;;;;;;;;;;;;;;;;;;7372025;19;1431;-55
2023/10/05 03:41:04;;;;;;;;;;;;;;;;;;7369202;19;1364;-55
2023/10/05 03:43:34;;;;;;;;;;;;;;;;;;7367468;19;1052;-54
2023/10/05 03:46:02;;;;;;;;;;;;;;;;;;7366636;19;1845;-54
2023/10/05 03:48:31;;;;;;;;;;;;;;;;;;7368297;19;865;-57
2023/10/05 03:51:00;;;;;;;;;;;;;;;;;;7368588;19;1373;-54
2023/10/05 03:53:28;;;;;;;;;;;;;;;;;;7366632;19;844;-58
2023/10/05 03:55:56;;;;;;;;;;;;;;;;;;7368786;19;1553;-54
2023/10/05 03:58:24;;;;;;;;;;;;;;;;;;7372011;19;1580;-52
2023/10/05 04:00:53;;;;;;;;;;;;;;;;;;7367993;19;1313;-54
2023/10/05 04:03:24;;;;;;;;;;;;;;;;;;7368827;19;858;-55
2023/10/05 04:05:52;;;;;;;;;;;;;;;;;;7367157;19;1857;-55
2023/10/05 04:08:22;;;;;;;;;;;;;;;;;;7368130;19;1573;-56
2023/10/05 04:10:50;;;;;;;;;;;;;;;;;;7370250;19;1740;-55
2023/10/05 04:13:20;;;;;;;;;;;;;;;;;;7371718;19;845;-56
2023/10/05 04:15:50;;;;;;;;;;;;;;;;;;7366882;19;2032;-56
2023/10/05 04:18:20;;;;;;;;;;;;;;;;;;7370532;19;1794;-57
2023/10/05 04:20:48;;;;;;;;;;;;;;;;;;7367344;19;1370;-52
2023/10/05 04:23:18;;;;;;;;;;;;;;;;;;7372585;19;1068;-57
2023/10/05 04:25:47;;;;;;;;;;;;;;;;;;7367722;19;1865;-56
2023/10/05 04:28:15;;;;;;;;;;;;;;;;;;7370317;19;1473;-56
2023/10/05 04:30:43;;;;;;;;;;;;;;;;;;7367389;19;1264;-57
2023/10/05 04:33:14;;;;;;;;;;;;;;;;;;7367449;19;794;-58
2023/10/05 04:35:45;;;;;;;;;;;;;;;;;;7369281;19;1626;-57
2023/10/05 04:38:13;;;;;;;;;;;;;;;;;;7367279;19;792;-57
2023/10/05 04:40:41;;;;;;;;;;;;;;;;;;7366182;19;1283;-57
2023/10/05 04:43:11;;;;;;;;;;;;;;;;;;7367774;19;801;-54
2023/10/05 04:45:42;;;;;;;;;;;;;;;;;;7367350;19;1722;-56
2023/10/05 04:48:12;;;;;;;;;;;;;;;;;;7366950;19;1853;-59
2023/10/05 04:50:40;;;;;;;;;;;;;;;;;;7366507;19;1622;-53
2023/10/05 04:53:09;;;;;;;;;;;;;;;;;;7368793;19;1716;-55
2023/10/05 04:55:41;;;;;;;;;;;;;;;;;;7370555;19;1473;-54
2023/10/05 05:01:15;;;;;;;;;;;;;;;;;;7366141;19;1230;-53
2023/10/05 05:03:56;;;;;;;;;;;;;;;;;;7366430;19;1550;-55
2023/10/05 05:06:25;;;;;;;;;;;;;;;;;;7365754;19;1851;-56
2023/10/05 05:08:53;;;;;;;;;;;;;;;;;;7370193;19;1577;-55
2023/10/05 05:11:19;;;;;;;;;;;;;;;;;;7364968;19;1303;-53
2023/10/05 05:13:48;;;;;;;;;;;;;;;;;;7366187;19;826;-53
2023/10/05 05:16:17;;;;;;;;;;;;;;;;;;7364678;19;1842;-54
2023/10/05 05:18:45;;;;;;;;;;;;;;;;;;7368330;19;1510;-54
2023/10/05 05:21:13;;;;;;;;;;;;;;;;;;7366814;19;1662;-56
2023/10/05 05:23:42;;;;;;;;;;;;;;;;;;7369918;19;1816;-55
2023/10/05 05:26:11;;;;;;;;;;;;;;;;;;7363818;19;2044;-58
2023/10/05 05:28:41;;;;;;;;;;;;;;;;;;7369138;19;1536;-59
2023/10/05 05:31:14;;;;;;;;;;;;;;;;;;7368004;19;2059;-58
2023/10/05 05:33:44;;;;;;;;;;;;;;;;;;7368066;19;1851;-54
2023/10/05 05:36:12;;;;;;;;;;;;;;;;;;7366909;19;1802;-53
2023/10/05 05:38:41;;;;;;;;;;;;;;;;;;7366162;19;872;-56
2023/10/05 05:41:15;;;;;;;;;;;;;;;;;;7365247;19;1383;-55
2023/10/05 05:43:43;;;;;;;;;;;;;;;;;;7364640;19;1469;-54
2023/10/05 05:46:12;;;;;;;;;;;;;;;;;;7369336;19;1852;-57
2023/10/05 05:48:40;;;;;;;;;;;;;;;;;;7369041;19;2002;-56
2023/10/05 05:51:13;;;;;;;;;;;;;;;;;;7363227;19;1605;-58
2023/10/05 05:53:42;;;;;;;;;;;;;;;;;;7367985;19;1806;-56
2023/10/05 05:56:16;;;;;;;;;;;;;;;;;;7361997;19;1814;-53
2023/10/05 05:58:44;;;;;;;;;;;;;;;;;;7368816;19;1569;-56
2023/10/05 06:01:14;;;;;;;;;;;;;;;;;;7361417;19;1941;-52
2023/10/05 06:03:43;;;;;;;;;;;;;;;;;;7369397;19;1727;-54
2023/10/05 06:06:11;;;;;;;;;;;;;;;;;;7368483;19;1854;-54
2023/10/05 06:08:41;;;;;;;;;;;;;;;;;;7368322;19;1458;-55
2023/10/05 06:11:11;;;;;;;;;;;;;;;;;;7364494;19;1356;-54
2023/10/05 06:13:41;;;;;;;;;;;;;;;;;;7363797;19;885;-54
2023/10/05 06:16:10;;;;;;;;;;;;;;;;;;7365587;19;1732;-54
2023/10/05 06:18:38;;;;;;;;;;;;;;;;;;7366577;19;1669;-56
2023/10/05 06:21:07;;;;;;;;;;;;;;;;;;7365736;19;2136;-56
2023/10/05 06:23:35;;;;;;;;;;;;;;;;;;7365975;19;1957;-55
2023/10/05 06:26:03;;;;;;;;;;;;;;;;;;7364569;19;1793;-55
2023/10/05 06:28:32;;;;;;;;;;;;;;;;;;7365474;19;1846;-55
2023/10/05 06:31:01;;;;;;;;;;;;;;;;;;7360727;19;1310;-57
2023/10/05 06:33:29;;;;;;;;;;;;;;;;;;7367429;19;1003;-56
2023/10/05 06:35:57;;;;;;;;;;;;;;;;;;7362789;19;806;-56
2023/10/05 06:38:26;;;;;;;;;;;;;;;;;;7364342;19;783;-55
2023/10/05 06:40:54;;;;;;;;;;;;;;;;;;7363603;19;1356;-55
2023/10/05 06:43:22;;;;;;;;;;;;;;;;;;7363067;19;882;-56
2023/10/05 06:45:51;;;;;;;;;;;;;;;;;;7362962;19;857;-52
2023/10/05 06:48:19;;;;;;;;;;;;;;;;;;7360635;19;1838;-54
2023/10/05 06:50:47;;;;;;;;;;;;;;;;;;7362271;19;1299;-57
2023/10/05 06:53:15;;;;;;;;;;;;;;;;;;7363405;19;1819;-55
2023/10/05 06:55:43;;;;;;;;;;;;;;;;;;7365358;19;1636;-54
2023/10/05 06:58:13;;;;;;;;;;;;;;;;;;7364183;19;1387;-56
2023/10/05 07:00:41;;;;;;;;;;;;;;;;;;7363000;19;1213;-57
2023/10/05 07:03:11;;;;;;;;;;;;;;;;;;7366711;19;1018;-57
2023/10/05 07:05:39;;;;;;;;;;;;;;;;;;7362788;19;770;-56
2023/10/05 07:08:07;;;;;;;;;;;;;;;;;;7364638;19;1852;-52
2023/10/05 07:10:36;;;;;;;;;;;;;;;;;;7371390;19;1598;-54
2023/10/05 07:13:08;;;;;;;;;;;;;;;;;;7369830;19;790;-56
2023/10/05 07:15:36;;;;;;;;;;;;;;;;;;7368905;19;750;-56
2023/10/05 07:18:06;;;;;;;;;;;;;;;;;;7369583;19;778;-56
2023/10/05 07:20:36;;;;;;;;;;;;;;;;;;7373822;19;889;-55
2023/10/05 07:23:04;;;;;;;;;;;;;;;;;;7369734;19;818;-61
2023/10/05 07:25:33;;;;;;;;;;;;;;;;;;7369706;19;761;-52
2023/10/05 07:28:01;;;;;;;;;;;;;;;;;;7371004;19;1870;-53
2023/10/05 07:30:29;;;;;;;;;;;;;;;;;;7374214;19;1802;-55
2023/10/05 07:32:58;;;;;;;;;;;;;;;;;;7370646;19;1925;-58
2023/10/05 07:35:26;;;;;;;;;;;;;;;;;;7371860;19;2122;-55
2023/10/05 07:37:54;;;;;;;;;;;;;;;;;;7374103;19;1797;-58
2023/10/05 07:40:22;;;;;;;;;;;;;;;;;;7376046;19;1973;-53
2023/10/05 07:42:50;;;;;;;;;;;;;;;;;;7371499;19;1642;-57
2023/10/05 07:45:18;;;;;;;;;;;;;;;;;;7371467;19;1567;-58
2023/10/05 07:47:47;;;;;;;;;;;;;;;;;;7373015;19;1852;-52
2023/10/05 07:50:16;;;;;;;;;;;;;;;;;;7369926;19;1673;-51
2023/10/05 07:52:44;;;;;;;;;;;;;;;;;;7369916;19;1713;-56
2023/10/05 07:55:12;;;;;;;;;;;;;;;;;;7369421;19;1463;-56
2023/10/05 07:57:40;;;;;;;;;;;;;;;;;;7369129;19;966;-57
2023/10/05 08:00:11;;;;;;;;;;;;;;;;;;7369463;19;770;-55
2023/10/05 08:02:42;;;;;;;;;;;;;;;;;;7367857;19;1657;-56
2023/10/05 08:05:11;;;;;;;;;;;;;;;;;;7372271;19;1409;-56
2023/10/05 08:07:40;;;;;;;;;;;;;;;;;;7368236;19;1851;-57
2023/10/05 08:10:13;;;;;;;;;;;;;;;;;;7370461;19;1867;-55
2023/10/05 08:12:41;;;;;;;;;;;;;;;;;;7367667;19;1997;-55
2023/10/05 08:15:12;;;;;;;;;;;;;;;;;;7371368;19;1799;-57
2023/10/05 08:17:40;;;;;;;;;;;;;;;;;;7368237;19;740;-55
2023/10/05 08:20:09;;;;;;;;;;;;;;;;;;7369057;19;1636;-56
2023/10/05 08:22:37;;;;;;;;;;;;;;;;;;7366114;19;1281;-56
2023/10/05 08:25:11;;;;;;;;;;;;;;;;;;7367250;19;830;-57
2023/10/05 08:27:42;;;;;;;;;;;;;;;;;;7369574;19;1860;-52
2023/10/05 08:30:10;;;;;;;;;;;;;;;;;;7368166;19;741;-57
2023/10/05 08:32:39;;;;;;;;;;;;;;;;;;7365673;19;1294;-55
2023/10/05 08:35:13;;;;;;;;;;;;;;;;;;7367806;19;871;-53
2023/10/05 08:37:42;;;;;;;;;;;;;;;;;;7368185;19;719;-56
2023/10/05 08:40:27;;;;;;;;;;;;;;;;;;7368274;19;919;-55
2023/10/05 08:42:55;;;;;;;;;;;;;;;;;;7364931;19;1365;-56
2023/10/05 08:45:24;;;;;;;;;;;;;;;;;;7370295;19;1671;-57
2023/10/05 08:47:53;;;;;;;;;;;;;;;;;;7368529;19;1852;-55
2023/10/05 08:50:22;;;;;;;;;;;;;;;;;;7367167;19;1880;-52
2023/10/05 08:52:50;;;;;;;;;;;;;;;;;;7366608;19;1753;-56
2023/10/05 08:55:18;;;;;;;;;;;;;;;;;;7368293;19;1715;-56
2023/10/05 08:57:46;;;;;;;;;;;;;;;;;;7369621;19;1911;-56
2023/10/05 09:00:38;;;;;;;;;;;;;;;;;;7368161;19;1988;-55
2023/10/05 09:03:05;;;;;;;;;;;;;;;;;;7367710;19;2045;-55
2023/10/05 09:05:34;;;;;;;;;;;;;;;;;;7364868;19;878;-56
2023/10/05 09:08:03;;;;;;;;;;;;;;;;;;7365201;19;1850;-57
2023/10/05 09:10:31;;;;;;;;;;;;;;;;;;7366335;19;778;-56
2023/10/05 09:13:07;;;;;;;;;;;;;;;;;;7363633;19;1280;-55
2023/10/05 09:15:37;;;;;;;;;;;;;;;;;;7365693;19;730;-54
2023/10/05 09:18:25;;;;;;;;;;;;;;;;;;7366790;19;889;-55
2023/10/05 09:20:55;;;;;;;;;;;;;;;;;;7365612;19;1219;-55
2023/10/05 09:23:25;;;;;;;;;;;;;;;;;;7366756;19;822;-53
2023/10/05 09:25:53;;;;;;;;;;;;;;;;;;7365216;19;898;-58
2023/10/05 09:28:28;;;;;;;;;;;;;;;;;;7365744;19;1857;-57
2023/10/05 09:30:59;;;;;;;;;;;;;;;;;;7365530;19;1346;-56
2023/10/05 09:33:27;;;;;;;;;;;;;;;;;;7365661;19;670;-55
2023/10/05 09:36:01;;;;;;;;;;;;;;;;;;7365342;19;867;-54
2023/10/05 09:38:30;;;;;;;;;;;;;;;;;;7366229;19;727;-57
2023/10/05 09:40:58;;;;;;;;;;;;;;;;;;7365464;19;1344;-57
2023/10/05 09:43:27;;;;;;;;;;;;;;;;;;7366113;19;828;-56
2023/10/05 09:45:57;;;;;;;;;;;;;;;;;;7365300;19;1017;-53
2023/10/05 09:48:25;;;;;;;;;;;;;;;;;;7364234;19;1849;-58
2023/10/05 09:50:53;;;;;;;;;;;;;;;;;;7365006;19;1290;-56
2023/10/05 09:53:21;;;;;;;;;;;;;;;;;;7365450;19;845;-57
2023/10/05 09:55:53;;;;;;;;;;;;;;;;;;7365476;19;802;-55
2023/10/05 09:58:21;;;;;;;;;;;;;;;;;;7366167;19;691;-54
2023/10/05 10:00:55;;;;;;;;;;;;;;;;;;7364967;19;1319;-57
2023/10/05 10:03:23;;;;;;;;;;;;;;;;;;7365347;19;859;-55
2023/10/05 10:05:51;;;;;;;;;;;;;;;;;;7364621;19;846;-55
2023/10/05 10:08:21;;;;;;;;;;;;;;;;;;7364256;19;1845;-58
2023/10/05 10:10:51;;;;;;;;;;;;;;;;;;7364862;19;1255;-53
2023/10/05 10:13:21;;;;;;;;;;;;;;;;;;7365657;19;709;-55
2023/10/05 10:15:49;;;;;;;;;;;;;;;;;;7364898;19;832;-56
2023/10/05 10:18:18;;;;;;;;;;;;;;;;;;7365225;19;865;-53
2023/10/05 10:20:48;;;;;;;;;;;;;;;;;;7364717;19;1709;-54
2023/10/05 10:23:19;;;;;;;;;;;;;;;;;;7364227;19;915;-55
2023/10/05 10:25:49;;;;;;;;;;;;;;;;;;7364495;19;679;-54
2023/10/05 10:28:17;;;;;;;;;;;;;;;;;;7363527;19;1853;-57
2023/10/05 10:30:47;;;;;;;;;;;;;;;;;;7364649;19;1332;-53
2023/10/05 10:33:15;;;;;;;;;;;;;;;;;;7364739;19;911;-53
2023/10/05 10:35:43;;;;;;;;;;;;;;;;;;7364650;19;895;-53
2023/10/05 10:38:17;;;;;;;;;;;;;;;;;;7364381;19;864;-57
2023/10/05 10:40:53;;;;;;;;;;;;;;;;;;7364072;19;1315;-52
2023/10/05 10:43:21;;;;;;;;;;;;;;;;;;7367842;19;691;-58
2023/10/05 10:45:50;;;;;;;;;;;;;;;;;;7378030;19;1534;-53
2023/10/05 10:48:28;;;;;;;;;;;;;;;;;;7371449;19;1850;-53
2023/10/05 10:50:59;;;;;;;;;;;;;;;;;;7367470;19;1631;-54
2023/10/05 10:53:30;;;;;;;;;;;;;;;;;;7374337;19;1716;-52
2023/10/05 10:56:03;;;;;;;;;;;;;;;;;;7369109;19;739;-52
2023/10/05 10:58:32;;;;;;;;;;;;;;;;;;7370493;19;766;-51
2023/10/05 11:01:02;;;;;;;;;;;;;;;;;;7368830;19;1984;-52
2023/10/05 11:03:30;;;;;;;;;;;;;;;;;;7372573;19;1938;-52
2023/10/05 11:06:00;;;;;;;;;;;;;;;;;;7369786;19;1666;-53
2023/10/05 11:08:31;;;;;;;;;;;;;;;;;;7372332;19;1829;-54
2023/10/05 11:11:06;;;;;;;;;;;;;;;;;;7369495;19;1308;-56
2023/10/05 11:13:35;;;;;;;;;;;;;;;;;;7369958;19;691;-53
2023/10/05 11:16:03;;;;;;;;;;;;;;;;;;7368589;19;898;-55
2023/10/05 11:18:34;;;;;;;;;;;;;;;;;;7369104;19;840;-55
2023/10/05 11:21:02;;;;;;;;;;;;;;;;;;7366682;19;1277;-55
2023/10/05 11:23:32;;;;;;;;;;;;;;;;;;7369288;19;763;-54
2023/10/05 11:26:17;;;;;;;;;;;;;;;;;;7369171;19;1323;-57
2023/10/05 11:28:46;;;;;;;;;;;;;;;;;;7368119;19;2277;-57
2023/10/05 11:31:15;;;;;;;;;;;;;;;;;;7370031;19;1360;-53
2023/10/05 11:33:46;;;;;;;;;;;;;;;;;;7372724;19;2188;-52
2023/10/05 11:36:21;;;;;;;;;;;;;;;;;;7370502;19;1905;-56
2023/10/05 11:38:50;;;;;;;;;;;;;;;;;;7372294;19;1656;-57
2023/10/05 11:41:23;;;;;;;;;;;;;;;;;;7368104;19;1329;-54
2023/10/05 11:43:53;;;;;;;;;;;;;;;;;;7369503;19;766;-56
2023/10/05 11:46:30;;;;;;;;;;;;;;;;;;7368714;19;1124;-57
2023/10/05 11:49:04;;;;;;;;;;;;;;;;;;7368095;19;1880;-54
2023/10/05 11:51:41;;;;;;;;;;;;;;;;;;7368367;19;1344;-54
2023/10/05 11:54:09;;;;;;;;;;;;;;;;;;7368245;19;1623;-53
2023/10/05 11:56:38;;;;;;;;;;;;;;;;;;7372142;19;1840;-52
2023/10/05 11:59:07;;;;;;;;;;;;;;;;;;7374289;19;1698;-56
2023/10/05 12:01:39;;;;;;;;;;;;;;;;;;7371220;19;1768;-57
2023/10/05 12:04:08;;;;;;;;;;;;;;;;;;7373860;19;1656;-52
2023/10/05 12:06:38;;;;;;;;;;;;;;;;;;7368902;19;835;-53
2023/10/05 12:09:07;;;;;;;;;;;;;;;;;;7370839;19;1861;-58
2023/10/05 12:11:35;;;;;;;;;;;;;;;;;;7371404;19;1799;-57
2023/10/05 12:14:04;;;;;;;;;;;;;;;;;;7369393;19;1970;-54
2023/10/05 12:16:33;;;;;;;;;;;;;;;;;;7369560;19;1458;-53
2023/10/05 12:19:13;;;;;;;;;;;;;;;;;;7369303;19;833;-53
2023/10/05 12:21:41;;;;;;;;;;;;;;;;;;7367366;19;1359;-55
2023/10/05 12:24:11;;;;;;;;;;;;;;;;;;7369289;19;823;-57
2023/10/05 12:26:39;;;;;;;;;;;;;;;;;;7366594;19;1669;-56
2023/10/05 12:29:12;;;;;;;;;;;;;;;;;;7370445;19;1892;-58
2023/10/05 12:31:40;;;;;;;;;;;;;;;;;;7367336;19;1294;-57
2023/10/05 12:34:14;;;;;;;;;;;;;;;;;;7368731;19;783;-55
2023/10/05 12:36:46;;;;;;;;;;;;;;;;;;7370624;19;1682;-57
2023/10/05 12:39:12;;;;;;;;;;;;;;;;;;7368006;19;747;-54
2023/10/05 12:41:41;;;;;;;;;;;;;;;;;;7367938;19;1474;-55
2023/10/05 12:44:13;;;;;;;;;;;;;;;;;;7368684;19;909;-57
2023/10/05 12:46:41;;;;;;;;;;;;;;;;;;7367982;19;704;-57
2023/10/05 12:49:10;;;;;;;;;;;;;;;;;;7365930;19;1846;-57
2023/10/05 12:51:38;;;;;;;;;;;;;;;;;;7368431;19;1992;-58
2023/10/05 12:54:08;;;;;;;;;;;;;;;;;;7369790;19;1501;-57
2023/10/05 12:56:38;;;;;;;;;;;;;;;;;;7369364;19;1967;-53
2023/10/05 12:59:07;;;;;;;;;;;;;;;;;;7370721;19;1742;-55
2023/10/05 13:01:36;;;;;;;;;;;;;;;;;;7365606;19;1289;-55
2023/10/05 13:04:05;;;;;;;;;;;;;;;;;;7367168;19;853;-56
2023/10/05 13:06:33;;;;;;;;;;;;;;;;;;7365243;19;848;-56
2023/10/05 13:09:04;;;;;;;;;;;;;;;;;;7366435;19;1849;-57
2023/10/05 13:11:32;;;;;;;;;;;;;;;;;;7366435;19;1365;-55
2023/10/05 13:14:00;;;;;;;;;;;;;;;;;;7366411;19;814;-54
2023/10/05 13:16:28;;;;;;;;;;;;;;;;;;7366413;19;778;-56
2023/10/05 13:18:57;;;;;;;;;;;;;;;;;;7366130;19;811;-56
2023/10/05 13:21:25;;;;;;;;;;;;;;;;;;7365491;19;1273;-57
2023/10/05 13:23:54;;;;;;;;;;;;;;;;;;7366648;19;843;-57
2023/10/05 13:26:26;;;;;;;;;;;;;;;;;;7366629;19;857;-56
2023/10/05 13:28:59;;;;;;;;;;;;;;;;;;7365622;19;1857;-54
2023/10/05 13:31:27;;;;;;;;;;;;;;;;;;7365434;19;1257;-58
2023/10/05 13:33:59;;;;;;;;;;;;;;;;;;7366656;19;856;-57
2023/10/05 13:36:27;;;;;;;;;;;;;;;;;;7365685;19;758;-55
2023/10/05 13:38:56;;;;;;;;;;;;;;;;;;7366295;19;869;-56
2023/10/05 13:41:27;;;;;;;;;;;;;;;;;;7365098;19;1290;-56
2023/10/05 13:43:55;;;;;;;;;;;;;;;;;;7366314;19;727;-54
2023/10/05 13:46:23;;;;;;;;;;;;;;;;;;7368037;19;1378;-58
2023/10/05 13:48:53;;;;;;;;;;;;;;;;;;7365281;19;1861;-55
2023/10/05 13:51:23;;;;;;;;;;;;;;;;;;7364331;19;1314;-57
2023/10/05 13:53:54;;;;;;;;;;;;;;;;;;7365028;19;933;-56
2023/10/05 13:56:27;;;;;;;;;;;;;;;;;;7361238;19;1153;-56
2023/10/05 13:58:58;;;;;;;;;;;;;;;;;;7364719;19;769;-56
2023/10/05 14:01:26;;;;;;;;;;;;;;;;;;7368420;19;1352;-55
2023/10/05 14:03:54;;;;;;;;;;;;;;;;;;7365092;19;2209;-59
2023/10/05 14:06:27;;;;;;;;;;;;;;;;;;7366316;19;1708;-58
2023/10/05 14:08:57;;;;;;;;;;;;;;;;;;7367353;19;1859;-59
2023/10/05 14:11:25;;;;;;;;;;;;;;;;;;7366400;19;1753;-56
2023/10/05 14:13:53;;;;;;;;;;;;;;;;;;7367647;19;1457;-58
2023/10/05 14:16:22;;;;;;;;;;;;;;;;;;7366837;19;1811;-59
2023/10/05 14:18:52;;;;;;;;;;;;;;;;;;7363043;19;778;-60
2023/10/05 14:21:21;;;;;;;;;;;;;;;;;;7365241;19;1762;-57
2023/10/05 14:23:50;;;;;;;;;;;;;;;;;;7366920;19;1909;-57
2023/10/05 14:26:18;;;;;;;;;;;;;;;;;;7365106;19;1716;-59
2023/10/05 14:28:47;;;;;;;;;;;;;;;;;;7365436;19;1874;-57
2023/10/05 14:31:15;;;;;;;;;;;;;;;;;;7365607;19;1395;-56
2023/10/05 14:33:44;;;;;;;;;;;;;;;;;;7364229;19;864;-57
2023/10/05 14:36:13;;;;;;;;;;;;;;;;;;7363345;19;1766;-57
2023/10/05 14:38:41;;;;;;;;;;;;;;;;;;7368645;19;1804;-55
2023/10/05 14:41:09;;;;;;;;;;;;;;;;;;7367226;19;1920;-54
2023/10/05 14:43:44;;;;;;;;;;;;;;;;;;7365850;19;1029;-57
2023/10/05 14:46:14;;;;;;;;;;;;;;;;;;7364364;19;583;-57
2023/10/05 14:48:42;;;;;;;;;;;;;;;;;;7364220;19;926;-57
2023/10/05 14:51:15;;;;;;;;;;;;;;;;;;7361132;19;1845;-57
2023/10/05 14:53:44;;;;;;;;;;;;;;;;;;7364333;19;1715;-57
2023/10/05 14:56:12;;;;;;;;;;;;;;;;;;7366627;19;1809;-57
2023/10/05 14:58:43;;;;;;;;;;;;;;;;;;7367299;19;1689;-56
2023/10/05 15:01:13;;;;;;;;;;;;;;;;;;7362083;19;1597;-58
2023/10/05 15:03:41;;;;;;;;;;;;;;;;;;7366640;19;1686;-56
2023/10/05 15:06:11;;;;;;;;;;;;;;;;;;7367013;19;1279;-57
2023/10/05 15:08:39;;;;;;;;;;;;;;;;;;7363900;19;1779;-56
2023/10/05 15:11:09;;;;;;;;;;;;;;;;;;7361467;19;1850;-55
2023/10/05 15:13:39;;;;;;;;;;;;;;;;;;7365340;19;1821;-55
2023/10/05 15:16:09;;;;;;;;;;;;;;;;;;7362509;19;1765;-58
2023/10/05 15:18:41;;;;;;;;;;;;;;;;;;7366413;19;1653;-53
2023/10/05 15:21:09;;;;;;;;;;;;;;;;;;7360048;19;1797;-51
2023/10/05 15:23:38;;;;;;;;;;;;;;;;;;7362540;19;1802;-53
2023/10/05 15:26:07;;;;;;;;;;;;;;;;;;7364046;19;1575;-53
2023/10/05 15:28:35;;;;;;;;;;;;;;;;;;7365902;19;1902;-56
2023/10/05 15:31:06;;;;;;;;;;;;;;;;;;7369318;19;2056;-54
2023/10/05 15:33:36;;;;;;;;;;;;;;;;;;7370856;19;1769;-53
2023/10/05 15:36:04;;;;;;;;;;;;;;;;;;7370803;19;1946;-54
2023/10/05 15:38:33;;;;;;;;;;;;;;;;;;7370989;19;1770;-54
2023/10/05 15:41:03;;;;;;;;;;;;;;;;;;7371504;19;1769;-52
2023/10/05 15:43:31;;;;;;;;;;;;;;;;;;7371716;19;1782;-56
2023/10/05 15:46:00;;;;;;;;;;;;;;;;;;7371896;19;1760;-54
2023/10/05 15:48:28;;;;;;;;;;;;;;;;;;7368274;19;792;-55
2023/10/05 15:50:56;;;;;;;;;;;;;;;;;;7366060;19;1863;-56
2023/10/05 15:53:24;;;;;;;;;;;;;;;;;;7368147;19;1981;-56
2023/10/05 15:55:52;;;;;;;;;;;;;;;;;;7370744;19;1799;-54
2023/10/05 15:58:20;;;;;;;;;;;;;;;;;;7370998;19;1553;-57
2023/10/05 16:00:49;;;;;;;;;;;;;;;;;;7370622;19;1672;-58
2023/10/05 16:03:17;;;;;;;;;;;;;;;;;;7370952;19;1405;-54
2023/10/05 16:05:45;;;;;;;;;;;;;;;;;;7367261;19;888;-58
2023/10/05 16:08:17;;;;;;;;;;;;;;;;;;7367142;19;1750;-54
2023/10/05 16:10:45;;;;;;;;;;;;;;;;;;7371045;19;2326;-54
2023/10/05 16:13:15;;;;;;;;;;;;;;;;;;7370793;19;1735;-55
2023/10/05 16:15:43;;;;;;;;;;;;;;;;;;7370620;19;1752;-53
2023/10/05 16:18:13;;;;;;;;;;;;;;;;;;7368580;19;814;-52
2023/10/05 16:20:41;;;;;;;;;;;;;;;;;;7368043;19;1774;-53
2023/10/05 16:23:11;;;;;;;;;;;;;;;;;;7369573;19;1780;-56
2023/10/05 16:25:39;;;;;;;;;;;;;;;;;;7368619;19;1950;-56
2023/10/05 16:28:07;;;;;;;;;;;;;;;;;;7371778;19;1697;-52
2023/10/05 16:30:36;;;;;;;;;;;;;;;;;;7369228;19;1845;-51
2023/10/05 16:33:05;;;;;;;;;;;;;;;;;;7370239;19;1816;-55
2023/10/05 16:35:33;;;;;;;;;;;;;;;;;;7367457;19;877;-56
2023/10/05 16:38:01;;;;;;;;;;;;;;;;;;7368339;19;814;-56
2023/10/05 16:40:29;;;;;;;;;;;;;;;;;;7367198;19;869;-52
2023/10/05 16:42:58;;;;;;;;;;;;;;;;;;7366876;19;1739;-54
2023/10/05 16:45:26;;;;;;;;;;;;;;;;;;7369783;19;1852;-50
2023/10/05 16:47:54;;;;;;;;;;;;;;;;;;7371188;19;1771;-53
2023/10/05 16:50:22;;;;;;;;;;;;;;;;;;7368880;19;1854;-54
2023/10/05 16:52:50;;;;;;;;;;;;;;;;;;7363470;19;1659;-52
2023/10/05 16:55:19;;;;;;;;;;;;;;;;;;7369997;19;1653;-55
2023/10/05 16:57:49;;;;;;;;;;;;;;;;;;7370330;19;1650;-55
2023/10/05 17:00:22;;;;;;;;;;;;;;;;;;7366661;19;853;-54
2023/10/05 17:02:50;;;;;;;;;;;;;;;;;;7364978;19;1394;-54
2023/10/05 17:05:18;;;;;;;;;;;;;;;;;;7366188;19;806;-54
2023/10/05 17:07:47;;;;;;;;;;;;;;;;;;7367359;19;1022;-51
2023/10/05 17:10:15;;;;;;;;;;;;;;;;;;7366431;19;1846;-57
2023/10/05 17:12:44;;;;;;;;;;;;;;;;;;7365620;19;2007;-52
2023/10/05 17:15:12;;;;;;;;;;;;;;;;;;7371289;19;1679;-51
2023/10/05 17:17:40;;;;;;;;;;;;;;;;;;7367314;19;1990;-51
2023/10/05 17:20:08;;;;;;;;;;;;;;;;;;7371558;19;1629;-53
2023/10/05 17:22:36;;;;;;;;;;;;;;;;;;7364126;19;1326;-56
2023/10/05 17:25:07;;;;;;;;;;;;;;;;;;7365822;19;794;-56
2023/10/05 17:27:35;;;;;;;;;;;;;;;;;;7367334;19;813;-56
2023/10/05 17:30:03;;;;;;;;;;;;;;;;;;7366115;19;1846;-54